Time;durP1;ratioP1;P1;durP2;ratioP2;P2;SDS_P1;SDS_P2;PMS_P1;PMS_P2;Temp;Humidity;BMP_temperature;BMP_pressure;BME280_temperature;BME280_humidity;BME280_pressure;Samples;Min_cycle;Max_cycle;Signal;HPM_P1;HPM_P2
2023/02/18 00:00:10;;;;;;;2.30;2.00;;;13.70;99.90;;;;;;5090106;27;20186;-63
2023/02/18 00:02:36;;;;;;;3.10;2.17;;;13.70;99.90;;;;;;5090303;27;20212;-63
2023/02/18 00:05:02;;;;;;;2.23;1.97;;;13.70;99.90;;;;;;5096816;27;20419;-63
2023/02/18 00:07:28;;;;;;;3.03;2.20;;;13.80;99.90;;;;;;5095680;27;20750;-62
2023/02/18 00:09:53;;;;;;;3.00;2.30;;;13.80;99.90;;;;;;5091424;27;20192;-62
2023/02/18 00:12:19;;;;;;;3.00;2.07;;;13.70;99.90;;;;;;5092236;27;20265;-63
2023/02/18 00:14:44;;;;;;;3.03;2.27;;;13.80;99.90;;;;;;5095433;27;20500;-63
2023/02/18 00:17:10;;;;;;;2.93;2.20;;;13.80;99.90;;;;;;5096300;27;20757;-63
2023/02/18 00:19:36;;;;;;;2.77;1.90;;;13.80;99.90;;;;;;5098147;27;20219;-63
2023/02/18 00:22:01;;;;;;;2.40;1.80;;;13.80;99.90;;;;;;5092457;27;20230;-63
2023/02/18 00:24:27;;;;;;;2.57;2.33;;;13.80;99.90;;;;;;5099002;27;20205;-63
2023/02/18 00:26:52;;;;;;;2.53;2.10;;;13.80;99.90;;;;;;5090394;27;20208;-63
2023/02/18 00:29:19;;;;;;;2.40;2.00;;;13.80;99.90;;;;;;5078138;28;20264;-64
2023/02/18 00:31:45;;;;;;;2.53;2.30;;;13.90;99.90;;;;;;5076384;28;20321;-64
2023/02/18 00:34:11;;;;;;;2.70;2.10;;;13.90;99.90;;;;;;5094426;28;21552;-63
2023/02/18 00:36:37;;;;;;;2.63;2.10;;;13.90;99.90;;;;;;5091545;28;20263;-63
2023/02/18 00:39:06;;;;;;;2.50;2.17;;;14.00;99.90;;;;;;5096343;27;20424;-64
2023/02/18 00:41:32;;;;;;;3.77;2.50;;;13.90;99.90;;;;;;5091126;27;20182;-62
2023/02/18 00:43:58;;;;;;;3.03;2.50;;;14.00;99.90;;;;;;5090606;28;22233;-63
2023/02/18 00:46:25;;;;;;;3.00;2.20;;;13.90;99.90;;;;;;5098398;27;20974;-63
2023/02/18 00:48:50;;;;;;;3.07;2.10;;;13.80;99.90;;;;;;5078996;28;20246;-63
2023/02/18 00:51:16;;;;;;;4.97;2.60;;;13.90;99.90;;;;;;5094316;27;20430;-63
2023/02/18 00:53:42;;;;;;;2.63;2.10;;;13.80;99.90;;;;;;5094726;28;20533;-63
2023/02/18 00:56:08;;;;;;;3.07;2.47;;;13.80;99.90;;;;;;5095040;27;20554;-63
2023/02/18 00:58:34;;;;;;;3.70;2.50;;;13.80;99.90;;;;;;5097591;27;20190;-63
2023/02/18 01:01:00;;;;;;;2.80;2.47;;;13.80;99.90;;;;;;5092321;27;20284;-63
2023/02/18 01:03:26;;;;;;;3.80;2.33;;;13.70;99.90;;;;;;5101479;27;21332;-63
2023/02/18 01:05:52;;;;;;;4.20;2.50;;;13.70;99.90;;;;;;5078256;28;20173;-63
2023/02/18 01:08:19;;;;;;;3.47;2.63;;;13.70;99.90;;;;;;5095477;27;20178;-63
2023/02/18 01:10:47;;;;;;;3.90;2.67;;;13.70;99.90;;;;;;5093789;27;20517;-63
2023/02/18 01:13:14;;;;;;;2.80;2.40;;;13.70;99.90;;;;;;5092564;27;20430;-63
2023/02/18 01:15:41;;;;;;;3.60;2.60;;;13.70;99.90;;;;;;5094097;28;20420;-63
2023/02/18 01:18:07;;;;;;;3.47;2.90;;;13.70;99.90;;;;;;5094224;27;20412;-63
2023/02/18 01:20:34;;;;;;;2.50;2.17;;;13.70;99.90;;;;;;5079261;27;20441;-63
2023/02/18 01:23:00;;;;;;;3.13;2.83;;;13.70;99.90;;;;;;5093770;27;20479;-63
2023/02/18 01:25:25;;;;;;;4.37;2.90;;;13.80;99.90;;;;;;5096483;27;20427;-63
2023/02/18 01:27:51;;;;;;;3.40;3.10;;;13.80;99.90;;;;;;5093234;27;21017;-63
2023/02/18 01:30:17;;;;;;;3.80;2.83;;;13.70;99.90;;;;;;5089106;28;20185;-63
2023/02/18 01:32:44;;;;;;;2.90;2.60;;;13.80;99.90;;;;;;5094920;28;20185;-63
2023/02/18 01:35:13;;;;;;;3.80;2.70;;;13.60;99.90;;;;;;5091168;28;20431;-64
2023/02/18 01:37:38;;;;;;;4.23;3.40;;;13.60;99.90;;;;;;5094427;28;20442;-63
2023/02/18 01:40:06;;;;;;;4.50;3.13;;;13.70;99.90;;;;;;5091981;27;20439;-63
2023/02/18 01:42:31;;;;;;;4.63;3.40;;;13.70;99.90;;;;;;5096386;28;20189;-63
2023/02/18 01:45:37;;;;;;;4.77;2.90;;;13.70;99.90;;;;;;5078061;28;20459;-63
2023/02/18 01:48:06;;;;;;;3.90;3.03;;;13.70;99.90;;;;;;5090631;28;20176;-63
2023/02/18 01:50:35;;;;;;;4.47;3.50;;;13.60;99.90;;;;;;5096263;27;20458;-63
2023/02/18 01:53:01;;;;;;;3.73;3.20;;;13.60;99.90;;;;;;5095300;27;21135;-63
2023/02/18 01:55:27;;;;;;;4.63;3.40;;;13.50;99.90;;;;;;5078811;28;20819;-63
2023/02/18 01:57:53;;;;;;;4.67;3.93;;;13.60;99.90;;;;;;5091056;27;20473;-63
2023/02/18 02:00:20;;;;;;;3.40;3.10;;;13.50;99.90;;;;;;5093172;27;20178;-63
2023/02/18 02:02:47;;;;;;;6.03;3.63;;;13.60;99.90;;;;;;5095982;27;20486;-63
2023/02/18 02:05:13;;;;;;;4.97;4.40;;;13.60;99.90;;;;;;5095188;28;20423;-63
2023/02/18 02:07:41;;;;;;;5.53;4.10;;;13.60;99.90;;;;;;5076794;27;21018;-63
2023/02/18 02:10:09;;;;;;;4.03;3.63;;;13.60;99.90;;;;;;5088960;28;20818;-63
2023/02/18 02:12:54;;;;;;;4.60;4.20;;;13.60;99.90;;;;;;5095887;27;20443;-63
2023/02/18 02:15:25;;;;;;;3.80;3.33;;;13.60;99.90;;;;;;5088482;28;21065;-65
2023/02/18 02:18:25;;;;;;;4.90;3.90;;;13.50;99.90;;;;;;5085594;27;21058;-64
2023/02/18 02:21:06;;;;;;;4.60;3.93;;;13.50;99.90;;;;;;5092783;28;20424;-63
2023/02/18 02:23:54;;;;;;;4.23;3.37;;;13.50;99.90;;;;;;5093981;27;20454;-64
2023/02/18 02:26:30;;;;;;;4.60;4.13;;;13.50;99.90;;;;;;5075486;28;20987;-63
2023/02/18 02:29:33;;;;;;;6.50;4.73;;;13.40;99.90;;;;;;5094490;27;20408;-63
2023/02/18 02:32:11;;;;;;;6.00;4.23;;;13.30;99.90;;;;;;5088998;28;20453;-64
2023/02/18 02:34:58;;;;;;;5.40;4.70;;;13.30;99.90;;;;;;5094299;28;20970;-63
2023/02/18 02:37:52;;;;;;;5.73;4.00;;;13.30;99.90;;;;;;5093543;28;20452;-63
2023/02/18 02:40:29;;;;;;;7.10;3.83;;;13.30;99.90;;;;;;5091067;28;20432;-63
2023/02/18 02:43:03;;;;;;;4.97;3.67;;;13.20;99.90;;;;;;5088980;28;20475;-63
2023/02/18 02:45:40;;;;;;;6.00;4.30;;;13.30;99.90;;;;;;5092990;28;20467;-63
2023/02/18 02:48:11;;;;;;;8.80;4.30;;;13.20;99.90;;;;;;5094362;28;20438;-63
2023/02/18 02:50:44;;;;;;;5.40;4.47;;;13.20;99.90;;;;;;5096055;28;20429;-63
2023/02/18 02:53:21;;;;;;;7.13;4.20;;;13.10;99.90;;;;;;5097213;28;20442;-63
2023/02/18 02:55:47;;;;;;;5.33;4.60;;;13.10;99.90;;;;;;5093928;28;20438;-63
2023/02/18 02:58:17;;;;;;;4.50;4.10;;;13.10;99.90;;;;;;5097537;27;20432;-63
2023/02/18 03:01:06;;;;;;;5.30;4.30;;;13.10;99.90;;;;;;5094904;27;20623;-63
2023/02/18 03:03:47;;;;;;;5.50;4.87;;;13.10;99.90;;;;;;5100152;27;20462;-63
2023/02/18 03:06:40;;;;;;;4.73;4.23;;;13.10;99.90;;;;;;5097453;27;20451;-63
2023/02/18 03:09:23;;;;;;;6.00;4.47;;;13.10;99.90;;;;;;5095537;27;20428;-63
2023/02/18 03:12:03;;;;;;;5.70;4.80;;;13.00;99.90;;;;;;5076830;28;20443;-63
2023/02/18 03:14:42;;;;;;;5.87;4.70;;;13.00;99.90;;;;;;5094672;28;20443;-64
2023/02/18 03:17:25;;;;;;;4.50;4.10;;;13.00;99.90;;;;;;5094861;28;20442;-63
2023/02/18 03:20:03;;;;;;;6.03;4.50;;;13.00;99.90;;;;;;5094930;28;20496;-63
2023/02/18 03:22:32;;;;;;;5.00;4.30;;;13.10;99.90;;;;;;5095901;28;20489;-63
2023/02/18 03:24:59;;;;;;;5.00;3.93;;;13.10;99.90;;;;;;5096436;27;20511;-63
2023/02/18 03:27:30;;;;;;;5.17;4.60;;;13.10;99.90;;;;;;5094965;28;20466;-63
2023/02/18 03:30:01;;;;;;;5.33;4.70;;;13.20;99.90;;;;;;5094011;28;20467;-63
2023/02/18 03:32:29;;;;;;;6.70;4.53;;;13.10;99.90;;;;;;5094850;27;20436;-63
2023/02/18 03:35:05;;;;;;;4.73;4.13;;;13.20;99.90;;;;;;5094444;28;20440;-63
2023/02/18 03:37:34;;;;;;;5.40;4.30;;;13.10;99.90;;;;;;5091047;27;20702;-63
2023/02/18 03:40:01;;;;;;;7.63;4.73;;;13.10;99.90;;;;;;5095405;27;20870;-63
2023/02/18 03:42:27;;;;;;;5.03;4.50;;;13.10;99.90;;;;;;5095129;27;20469;-64
2023/02/18 03:44:53;;;;;;;6.37;4.50;;;13.10;99.90;;;;;;5094721;27;20875;-64
2023/02/18 03:47:19;;;;;;;4.47;4.07;;;13.10;99.90;;;;;;5077953;28;20451;-63
2023/02/18 03:49:44;;;;;;;3.57;3.27;;;13.10;99.90;;;;;;5095127;28;20175;-63
2023/02/18 03:52:10;;;;;;;7.43;4.77;;;13.10;99.90;;;;;;5094920;28;20415;-64
2023/02/18 03:54:36;;;;;;;5.37;4.20;;;13.00;99.90;;;;;;5083616;27;20270;-63
2023/02/18 03:57:02;;;;;;;5.10;4.47;;;13.10;99.90;;;;;;5097940;27;20262;-62
2023/02/18 03:59:27;;;;;;;4.40;3.90;;;13.20;99.90;;;;;;5100740;27;20177;-62
2023/02/18 04:01:53;;;;;;;4.13;3.73;;;13.20;99.90;;;;;;5092738;27;20485;-62
2023/02/18 04:04:18;;;;;;;6.73;4.10;;;13.10;99.90;;;;;;5101793;27;20205;-63
2023/02/18 04:06:44;;;;;;;4.50;4.10;;;13.10;99.90;;;;;;5098504;27;20194;-63
2023/02/18 04:09:09;;;;;;;5.33;4.37;;;13.20;99.90;;;;;;5101885;27;20839;-63
2023/02/18 04:11:39;;;;;;;4.90;4.33;;;13.10;99.90;;;;;;5097337;27;20186;-62
2023/02/18 04:14:06;;;;;;;6.27;4.70;;;13.10;99.90;;;;;;5092407;27;20310;-63
2023/02/18 04:16:31;;;;;;;5.30;4.70;;;13.20;99.90;;;;;;5095025;27;20462;-63
2023/02/18 04:18:57;;;;;;;5.00;4.40;;;13.20;99.90;;;;;;5092486;27;20844;-63
2023/02/18 04:21:23;;;;;;;4.80;4.10;;;13.20;99.90;;;;;;5095222;27;20230;-63
2023/02/18 04:23:48;;;;;;;4.27;3.80;;;13.20;99.90;;;;;;5092158;28;20197;-62
2023/02/18 04:26:14;;;;;;;5.10;3.77;;;13.20;99.90;;;;;;5097679;27;20224;-63
2023/02/18 04:28:39;;;;;;;4.30;3.90;;;13.20;99.90;;;;;;5097670;28;20169;-62
2023/02/18 04:31:05;;;;;;;4.60;3.90;;;13.20;99.90;;;;;;5093822;28;20178;-63
2023/02/18 04:33:30;;;;;;;4.47;3.80;;;13.20;99.90;;;;;;5093021;28;20619;-62
2023/02/18 04:35:56;;;;;;;5.03;4.30;;;13.20;99.90;;;;;;5092582;27;20202;-63
2023/02/18 04:38:22;;;;;;;4.60;3.70;;;13.20;99.90;;;;;;5095574;28;20182;-62
2023/02/18 04:40:47;;;;;;;5.37;3.70;;;13.20;99.90;;;;;;5076543;28;20190;-62
2023/02/18 04:43:13;;;;;;;5.47;4.10;;;13.20;99.90;;;;;;5091822;27;20204;-63
2023/02/18 04:45:38;;;;;;;5.60;4.10;;;13.10;99.90;;;;;;5090707;28;20516;-63
2023/02/18 04:48:04;;;;;;;5.80;4.03;;;13.10;99.90;;;;;;5093583;28;20663;-63
2023/02/18 04:50:30;;;;;;;5.80;3.93;;;13.10;99.90;;;;;;5099292;27;20237;-63
2023/02/18 04:52:55;;;;;;;4.47;3.83;;;13.10;99.90;;;;;;5078157;28;20468;-63
2023/02/18 04:55:21;;;;;;;4.30;3.67;;;13.10;99.90;;;;;;5095252;28;20229;-63
2023/02/18 04:57:46;;;;;;;5.60;3.47;;;13.00;99.90;;;;;;5091112;28;20221;-62
2023/02/18 05:00:18;;;;;;;3.37;2.80;;;13.10;99.90;;;;;;5093906;27;20178;-63
2023/02/18 05:02:44;;;;;;;4.67;3.67;;;13.00;99.90;;;;;;5092829;27;20214;-63
2023/02/18 05:05:10;;;;;;;4.37;3.97;;;13.00;99.90;;;;;;5092227;27;21619;-63
2023/02/18 05:07:36;;;;;;;4.60;3.70;;;13.00;99.90;;;;;;5096883;27;20439;-64
2023/02/18 05:10:03;;;;;;;4.70;3.93;;;13.00;99.90;;;;;;5097291;27;20785;-63
2023/02/18 05:12:28;;;;;;;4.47;3.90;;;13.00;99.90;;;;;;5094312;27;20258;-63
2023/02/18 05:14:54;;;;;;;4.63;3.57;;;13.00;99.90;;;;;;5092227;28;21158;-63
2023/02/18 05:17:20;;;;;;;4.13;3.50;;;13.00;99.90;;;;;;5094306;27;20201;-63
2023/02/18 05:19:45;;;;;;;5.27;4.00;;;13.00;99.90;;;;;;5092678;27;20182;-62
2023/02/18 05:22:11;;;;;;;4.53;3.53;;;13.00;99.90;;;;;;5098449;27;20670;-63
2023/02/18 05:24:37;;;;;;;6.00;4.17;;;13.00;99.90;;;;;;5095406;28;20204;-63
2023/02/18 05:27:03;;;;;;;3.87;3.47;;;13.00;99.90;;;;;;5089743;28;20197;-63
2023/02/18 05:29:28;;;;;;;4.57;4.10;;;13.00;99.90;;;;;;5096483;27;20441;-62
2023/02/18 05:31:54;;;;;;;4.50;3.30;;;13.00;99.90;;;;;;5093563;27;20193;-63
2023/02/18 05:34:19;;;;;;;6.50;3.83;;;13.10;99.90;;;;;;5098973;28;20274;-63
2023/02/18 05:36:45;;;;;;;3.87;3.33;;;13.00;99.90;;;;;;5094046;27;20258;-63
2023/02/18 05:39:10;;;;;;;5.20;3.63;;;13.00;99.90;;;;;;5095921;27;20193;-63
2023/02/18 05:41:36;;;;;;;5.00;3.60;;;13.10;99.90;;;;;;5095044;28;20182;-63
2023/02/18 05:46:46;;;;;;;3.53;3.23;;;13.10;99.90;;;;;;5093253;28;20340;-63
2023/02/18 05:49:11;;;;;;;5.60;4.30;;;13.10;99.90;;;;;;5090290;28;21248;-62
2023/02/18 05:51:37;;;;;;;4.80;3.63;;;13.00;99.90;;;;;;5100547;27;20621;-62
2023/02/18 05:54:03;;;;;;;5.10;3.03;;;13.00;99.90;;;;;;5088800;28;20178;-62
2023/02/18 05:56:28;;;;;;;4.20;3.70;;;13.00;99.90;;;;;;5094677;27;20210;-62
2023/02/18 05:58:54;;;;;;;3.93;3.43;;;13.10;99.90;;;;;;5091430;28;20439;-63
2023/02/18 06:01:20;;;;;;;3.80;3.40;;;13.00;99.90;;;;;;5093380;27;20301;-62
2023/02/18 06:03:45;;;;;;;4.33;3.33;;;13.00;99.90;;;;;;5091080;27;20201;-62
2023/02/18 06:06:11;;;;;;;3.97;3.50;;;13.00;99.90;;;;;;5095241;28;20577;-63
2023/02/18 06:08:36;;;;;;;4.03;3.63;;;13.10;99.90;;;;;;5095696;27;20656;-64
2023/02/18 06:11:02;;;;;;;4.83;3.50;;;13.10;99.90;;;;;;5092245;27;20657;-63
2023/02/18 06:13:27;;;;;;;3.97;3.20;;;13.10;99.90;;;;;;5086516;27;20185;-63
2023/02/18 06:15:53;;;;;;;3.57;3.07;;;13.10;99.90;;;;;;5088674;28;20208;-63
2023/02/18 06:18:20;;;;;;;6.93;3.80;;;13.00;99.90;;;;;;5096727;28;20265;-63
2023/02/18 06:20:46;;;;;;;4.73;3.50;;;13.00;99.90;;;;;;5089627;28;20447;-63
2023/02/18 06:23:12;;;;;;;4.00;3.60;;;13.10;99.90;;;;;;5102622;27;20478;-63
2023/02/18 06:25:38;;;;;;;5.83;3.20;;;13.10;99.90;;;;;;5094875;28;20419;-63
2023/02/18 06:28:04;;;;;;;3.57;3.00;;;13.10;99.90;;;;;;5091210;28;20416;-64
2023/02/18 06:30:29;;;;;;;3.93;3.23;;;13.20;99.90;;;;;;5095374;27;21037;-64
2023/02/18 06:32:55;;;;;;;4.60;3.90;;;13.20;99.90;;;;;;5091134;28;20181;-63
2023/02/18 06:35:21;;;;;;;5.50;3.70;;;13.10;99.90;;;;;;5096063;28;20189;-63
2023/02/18 06:37:46;;;;;;;4.63;3.30;;;13.10;99.90;;;;;;5096133;27;20242;-63
2023/02/18 06:40:12;;;;;;;3.00;2.70;;;13.20;99.90;;;;;;5093673;28;20209;-63
2023/02/18 06:42:38;;;;;;;4.27;3.23;;;13.30;99.90;;;;;;5081135;28;20211;-63
2023/02/18 06:45:05;;;;;;;4.27;2.67;;;13.20;99.90;;;;;;5094472;28;20424;-63
2023/02/18 06:47:31;;;;;;;4.70;3.97;;;13.20;99.90;;;;;;5096100;28;20207;-63
2023/02/18 06:49:57;;;;;;;3.50;3.10;;;13.30;99.90;;;;;;5090944;28;20465;-63
2023/02/18 06:52:22;;;;;;;4.03;3.20;;;13.20;99.90;;;;;;5099728;28;20416;-63
2023/02/18 06:54:48;;;;;;;4.37;3.97;;;13.20;99.90;;;;;;5091372;28;20237;-64
2023/02/18 06:57:14;;;;;;;3.97;3.00;;;13.30;99.90;;;;;;5095497;28;20196;-63
2023/02/18 06:59:39;;;;;;;5.20;3.60;;;13.20;99.90;;;;;;5083731;28;20429;-63
2023/02/18 07:02:05;;;;;;;4.20;3.20;;;13.20;99.90;;;;;;5091534;28;20171;-63
2023/02/18 07:04:30;;;;;;;4.20;3.30;;;13.30;99.90;;;;;;5094019;28;20250;-63
2023/02/18 07:06:56;;;;;;;3.50;3.00;;;13.40;99.90;;;;;;5092762;28;20190;-63
2023/02/18 07:09:22;;;;;;;3.50;2.90;;;13.30;99.90;;;;;;5095270;28;20205;-63
2023/02/18 07:11:47;;;;;;;3.33;3.03;;;13.40;99.90;;;;;;5076648;28;20178;-63
2023/02/18 07:14:13;;;;;;;4.50;3.30;;;13.30;99.90;;;;;;5096575;28;20174;-63
2023/02/18 07:16:38;;;;;;;3.43;3.10;;;13.40;99.90;;;;;;5094554;28;20670;-63
2023/02/18 07:19:04;;;;;;;4.20;3.10;;;13.30;99.90;;;;;;5089532;28;20389;-63
2023/02/18 07:21:29;;;;;;;3.17;2.80;;;13.40;99.90;;;;;;5080011;28;20686;-63
2023/02/18 07:23:55;;;;;;;3.70;3.03;;;13.40;99.90;;;;;;5096386;28;20298;-63
2023/02/18 07:26:20;;;;;;;4.90;3.40;;;13.50;99.90;;;;;;5094931;28;20946;-63
2023/02/18 07:28:46;;;;;;;3.47;3.10;;;13.50;99.90;;;;;;5094744;28;20647;-63
2023/02/18 07:31:11;;;;;;;3.57;3.07;;;13.40;99.90;;;;;;5086404;28;20381;-63
2023/02/18 07:33:37;;;;;;;3.63;2.70;;;13.50;99.90;;;;;;5088471;28;20187;-63
2023/02/18 07:36:03;;;;;;;3.60;2.90;;;13.60;99.90;;;;;;5089785;28;20687;-63
2023/02/18 07:38:29;;;;;;;3.00;2.57;;;13.60;99.90;;;;;;5091710;28;20927;-63
2023/02/18 07:40:55;;;;;;;3.73;3.00;;;13.60;99.90;;;;;;5082067;28;20423;-63
2023/02/18 07:43:21;;;;;;;2.90;2.53;;;13.60;99.90;;;;;;5077911;28;20200;-63
2023/02/18 07:45:47;;;;;;;3.30;2.70;;;13.60;99.90;;;;;;5091412;27;20440;-63
2023/02/18 07:48:13;;;;;;;6.50;3.27;;;13.70;99.90;;;;;;5090169;27;20238;-68
2023/02/18 07:50:41;;;;;;;3.13;2.60;;;13.70;99.90;;;;;;5090318;28;20257;-63
2023/02/18 07:53:07;;;;;;;4.40;2.50;;;13.70;99.90;;;;;;5094489;27;20421;-63
2023/02/18 07:55:48;;;;;;;3.53;2.77;;;13.70;99.90;;;;;;5096299;27;20801;-63
2023/02/18 07:58:24;;;;;;;3.77;2.60;;;13.70;99.90;;;;;;5092728;28;20632;-63
2023/02/18 08:00:52;;;;;;;3.60;3.10;;;13.80;99.90;;;;;;5098173;27;20422;-63
2023/02/18 08:03:19;;;;;;;4.90;2.87;;;13.90;99.90;;;;;;5097521;28;20842;-63
2023/02/18 08:05:46;;;;;;;2.90;2.33;;;13.90;99.90;;;;;;5094420;28;20502;-63
2023/02/18 08:08:19;;;;;;;3.40;3.10;;;13.90;99.90;;;;;;5094733;28;20451;-63
2023/02/18 08:10:45;;;;;;;3.90;2.93;;;13.90;99.90;;;;;;5088886;28;20435;-63
2023/02/18 08:13:11;;;;;;;4.10;3.50;;;14.00;99.90;;;;;;5091096;27;21900;-63
2023/02/18 08:15:37;;;;;;;3.87;3.20;;;14.00;99.90;;;;;;5092567;27;20507;-62
2023/02/18 08:18:04;;;;;;;3.80;3.10;;;14.10;99.90;;;;;;5093831;27;20503;-62
2023/02/18 08:20:30;;;;;;;3.00;2.47;;;14.10;99.90;;;;;;5098666;27;20967;-63
2023/02/18 08:22:55;;;;;;;3.00;2.70;;;14.10;99.90;;;;;;5096354;27;20514;-63
2023/02/18 08:25:21;;;;;;;4.03;2.83;;;14.10;99.90;;;;;;5095194;27;20556;-62
2023/02/18 08:27:46;;;;;;;3.90;2.90;;;14.10;99.90;;;;;;5095616;28;20201;-63
2023/02/18 08:30:12;;;;;;;3.37;2.80;;;14.00;99.90;;;;;;5078565;28;20712;-64
2023/02/18 08:32:38;;;;;;;3.43;2.73;;;14.00;99.90;;;;;;5091186;28;20206;-66
2023/02/18 08:35:04;;;;;;;4.30;3.10;;;14.10;99.90;;;;;;5093634;28;20505;-64
2023/02/18 08:37:30;;;;;;;2.73;2.30;;;14.10;99.90;;;;;;5093646;28;20216;-63
2023/02/18 08:39:55;;;;;;;4.10;2.57;;;14.10;99.90;;;;;;5100031;27;20439;-62
2023/02/18 08:42:21;;;;;;;3.40;2.73;;;14.10;99.90;;;;;;5097477;27;20800;-62
2023/02/18 08:44:46;;;;;;;2.97;2.40;;;14.10;99.90;;;;;;5095433;27;20639;-64
2023/02/18 08:47:12;;;;;;;3.00;2.37;;;14.20;99.90;;;;;;5092213;27;20780;-64
2023/02/18 08:49:37;;;;;;;3.00;2.27;;;14.20;99.90;;;;;;5093094;28;20208;-65
2023/02/18 08:52:04;;;;;;;2.93;2.17;;;14.20;99.90;;;;;;5075747;28;20281;-65
2023/02/18 08:54:30;;;;;;;2.77;2.20;;;14.20;99.90;;;;;;5093834;28;20272;-64
2023/02/18 08:56:59;;;;;;;3.30;2.73;;;14.20;99.90;;;;;;5092491;27;20487;-64
2023/02/18 08:59:25;;;;;;;3.73;2.40;;;14.20;99.90;;;;;;5088939;28;20442;-65
2023/02/18 09:01:51;;;;;;;2.73;2.47;;;14.30;99.90;;;;;;5094063;28;20440;-65
2023/02/18 09:04:17;;;;;;;2.60;2.07;;;14.30;99.90;;;;;;5095196;27;20216;-64
2023/02/18 09:06:42;;;;;;;2.67;2.47;;;14.30;99.90;;;;;;5090573;27;20460;-64
2023/02/18 09:09:09;;;;;;;3.27;2.70;;;14.30;99.90;;;;;;5090672;27;20182;-64
2023/02/18 09:11:35;;;;;;;2.90;2.30;;;14.30;99.90;;;;;;5093196;27;20186;-64
2023/02/18 09:14:01;;;;;;;3.43;2.60;;;14.30;99.90;;;;;;5092302;27;20443;-64
2023/02/18 09:16:28;;;;;;;2.90;2.50;;;14.30;99.90;;;;;;5089711;27;21097;-64
2023/02/18 09:18:55;;;;;;;4.00;2.70;;;14.30;99.90;;;;;;5092651;28;20452;-63
2023/02/18 09:21:22;;;;;;;3.80;2.53;;;14.20;99.90;;;;;;5091742;28;20447;-64
2023/02/18 09:23:48;;;;;;;4.07;2.70;;;14.20;99.90;;;;;;5094104;27;20460;-63
2023/02/18 09:26:15;;;;;;;4.00;2.60;;;14.30;99.90;;;;;;5091231;27;20852;-63
2023/02/18 09:28:41;;;;;;;3.00;2.30;;;14.30;99.90;;;;;;5089663;28;20432;-62
2023/02/18 09:31:15;;;;;;;3.20;2.47;;;14.30;99.90;;;;;;5071745;28;20466;-62
2023/02/18 09:33:44;;;;;;;2.83;2.40;;;14.40;99.90;;;;;;5087620;28;20486;-63
2023/02/18 09:36:10;;;;;;;3.60;2.80;;;14.50;99.90;;;;;;5088378;27;20477;-62
2023/02/18 09:38:35;;;;;;;3.67;2.67;;;14.50;99.90;;;;;;5092279;27;20443;-63
2023/02/18 09:41:05;;;;;;;3.00;2.20;;;14.50;99.90;;;;;;5092475;28;20277;-64
2023/02/18 09:43:41;;;;;;;2.53;2.17;;;14.60;99.90;;;;;;5073920;28;20638;-63
2023/02/18 09:46:34;;;;;;;2.80;2.33;;;14.60;99.90;;;;;;5093854;28;20534;-63
2023/02/18 09:49:03;;;;;;;2.60;2.20;;;14.60;99.90;;;;;;5091058;27;20444;-62
2023/02/18 09:51:29;;;;;;;3.83;2.80;;;14.60;99.90;;;;;;5094422;27;20428;-62
2023/02/18 09:53:55;;;;;;;3.50;2.60;;;14.60;99.90;;;;;;5094194;27;20440;-63
2023/02/18 09:56:31;;;;;;;3.57;2.40;;;14.50;99.90;;;;;;5094341;28;20930;-62
2023/02/18 09:59:01;;;;;;;4.47;2.30;;;14.50;99.90;;;;;;5080976;28;20811;-62
2023/02/18 10:01:32;;;;;;;3.40;3.00;;;14.70;99.90;;;;;;5077599;28;20911;-62
2023/02/18 10:04:02;;;;;;;3.00;2.20;;;14.70;99.90;;;;;;5094187;27;20468;-63
2023/02/18 10:06:31;;;;;;;3.80;2.40;;;14.60;99.90;;;;;;5090610;28;20462;-63
2023/02/18 10:09:03;;;;;;;5.20;2.90;;;14.60;99.90;;;;;;5080062;27;20455;-63
2023/02/18 10:11:30;;;;;;;3.60;2.97;;;14.60;99.90;;;;;;5092504;28;20431;-63
2023/02/18 10:13:59;;;;;;;2.37;1.90;;;14.70;99.90;;;;;;5094935;28;20503;-62
2023/02/18 10:16:25;;;;;;;3.57;2.77;;;14.80;99.90;;;;;;5093511;28;20516;-63
2023/02/18 10:18:57;;;;;;;4.13;2.40;;;14.70;99.90;;;;;;5092179;27;20430;-63
2023/02/18 10:21:30;;;;;;;3.03;2.33;;;14.60;99.90;;;;;;5094100;27;20433;-63
2023/02/18 10:24:08;;;;;;;2.77;2.10;;;14.60;99.90;;;;;;5095295;28;20891;-62
2023/02/18 10:26:35;;;;;;;3.17;2.77;;;14.50;99.90;;;;;;5093255;27;20481;-63
2023/02/18 10:29:01;;;;;;;3.20;2.50;;;14.50;99.90;;;;;;5090748;28;20469;-62
2023/02/18 10:31:36;;;;;;;3.10;2.60;;;14.60;99.90;;;;;;5090763;27;20980;-63
2023/02/18 10:34:27;;;;;;;3.50;2.77;;;14.50;99.90;;;;;;5095562;28;20411;-63
2023/02/18 10:37:14;;;;;;;4.10;3.13;;;14.50;99.90;;;;;;5090687;28;20447;-63
2023/02/18 10:39:55;;;;;;;3.40;2.63;;;14.50;99.90;;;;;;5077117;28;20524;-63
2023/02/18 10:42:35;;;;;;;3.83;3.03;;;14.30;99.90;;;;;;5092116;28;20472;-63
2023/02/18 10:45:12;;;;;;;3.80;3.00;;;14.40;99.90;;;;;;5089758;28;20885;-63
2023/02/18 10:48:03;;;;;;;4.00;2.60;;;14.40;99.90;;;;;;5090431;28;20532;-63
2023/02/18 10:50:34;;;;;;;5.43;3.43;;;14.50;99.90;;;;;;5091437;28;20867;-63
2023/02/18 10:53:09;;;;;;;3.27;2.97;;;14.40;99.90;;;;;;5088953;28;20477;-62
2023/02/18 10:55:40;;;;;;;8.60;3.27;;;14.40;99.90;;;;;;5090508;28;20416;-63
2023/02/18 10:58:35;;;;;;;4.03;2.57;;;14.50;99.90;;;;;;5087897;28;20440;-63
2023/02/18 11:01:07;;;;;;;4.20;3.03;;;14.60;99.90;;;;;;5091904;28;20424;-62
2023/02/18 11:04:16;;;;;;;4.17;2.87;;;14.60;99.90;;;;;;5092244;28;20563;-63
2023/02/18 11:06:50;;;;;;;4.00;3.17;;;14.70;99.90;;;;;;5090837;28;20458;-62
2023/02/18 11:09:39;;;;;;;3.80;3.00;;;14.50;99.90;;;;;;5094795;28;20412;-62
2023/02/18 11:12:13;;;;;;;3.50;3.10;;;14.50;99.90;;;;;;5091152;27;20877;-63
2023/02/18 11:14:44;;;;;;;3.37;2.83;;;14.60;99.90;;;;;;5099225;28;20511;-62
2023/02/18 11:17:26;;;;;;;3.67;2.90;;;14.60;99.90;;;;;;5095215;27;21755;-63
2023/02/18 11:20:17;;;;;;;3.77;3.37;;;14.70;99.90;;;;;;5097601;27;20523;-63
2023/02/18 11:22:43;;;;;;;4.50;3.20;;;14.80;99.90;;;;;;5100388;27;20427;-62
2023/02/18 11:25:21;;;;;;;3.70;2.87;;;14.90;99.90;;;;;;5098785;27;20528;-62
2023/02/18 11:27:55;;;;;;;4.50;2.83;;;14.90;99.90;;;;;;5095577;27;20200;-63
2023/02/18 11:30:33;;;;;;;3.90;3.20;;;14.90;99.90;;;;;;5095220;28;20403;-62
2023/02/18 11:33:19;;;;;;;3.70;3.13;;;14.90;99.90;;;;;;5080850;28;20873;-62
2023/02/18 11:35:56;;;;;;;4.00;3.43;;;14.90;99.90;;;;;;5093069;28;20424;-62
2023/02/18 11:38:28;;;;;;;4.73;3.70;;;15.00;99.90;;;;;;5097317;28;20415;-64
2023/02/18 11:40:56;;;;;;;4.70;3.50;;;15.00;99.90;;;;;;5099242;27;20415;-62
2023/02/18 11:43:28;;;;;;;4.73;3.70;;;15.00;99.90;;;;;;5095968;27;20578;-62
2023/02/18 11:46:18;;;;;;;4.60;3.53;;;15.00;99.90;;;;;;5094822;27;20451;-63
2023/02/18 11:48:44;;;;;;;5.43;3.90;;;15.10;99.90;;;;;;5092160;27;20468;-62
2023/02/18 11:51:32;;;;;;;5.70;3.90;;;15.10;99.90;;;;;;5092883;27;20941;-63
2023/02/18 11:54:19;;;;;;;4.80;3.97;;;15.10;99.90;;;;;;5095484;27;20420;-62
2023/02/18 11:56:54;;;;;;;5.57;3.97;;;15.10;99.90;;;;;;5094534;28;20515;-63
2023/02/18 11:59:20;;;;;;;4.57;3.60;;;15.10;99.90;;;;;;5090082;28;20434;-63
2023/02/18 12:01:50;;;;;;;4.20;3.80;;;15.10;99.90;;;;;;5094349;27;20458;-63
2023/02/18 12:04:18;;;;;;;3.77;3.00;;;15.10;99.90;;;;;;5094588;27;21056;-63
2023/02/18 12:06:50;;;;;;;4.20;3.27;;;15.00;99.90;;;;;;5093162;27;20439;-62
2023/02/18 12:09:35;;;;;;;6.73;4.10;;;15.00;99.90;;;;;;5092008;27;20518;-63
2023/02/18 12:12:12;;;;;;;7.10;4.43;;;14.90;99.90;;;;;;5094024;28;20480;-63
2023/02/18 12:14:38;;;;;;;4.53;4.10;;;14.90;99.90;;;;;;5084821;28;20878;-63
2023/02/18 12:17:44;;;;;;;4.90;3.57;;;14.90;99.90;;;;;;5096274;27;20548;-63
2023/02/18 12:20:37;;;;;;;4.27;3.40;;;14.80;99.90;;;;;;5092799;27;20177;-63
2023/02/18 12:23:33;;;;;;;5.53;4.60;;;14.80;99.90;;;;;;5097894;27;20789;-63
2023/02/18 12:26:28;;;;;;;5.10;3.80;;;14.90;99.90;;;;;;5096748;27;20527;-63
2023/02/18 12:28:56;;;;;;;4.30;3.40;;;14.80;99.90;;;;;;5097295;28;20466;-63
2023/02/18 12:31:44;;;;;;;5.07;4.27;;;14.60;99.90;;;;;;5097676;27;20408;-63
2023/02/18 12:34:38;;;;;;;9.13;4.97;;;14.60;99.90;;;;;;5096681;28;20503;-62
2023/02/18 12:37:22;;;;;;;4.07;3.33;;;14.60;99.90;;;;;;5068186;28;20439;-62
2023/02/18 12:40:06;;;;;;;4.47;4.07;;;14.50;99.90;;;;;;5098031;27;20487;-62
2023/02/18 12:42:58;;;;;;;4.57;3.90;;;14.50;99.90;;;;;;5097887;27;20427;-62
2023/02/18 12:45:43;;;;;;;6.20;3.67;;;14.50;99.90;;;;;;5093490;28;20433;-63
2023/02/18 12:48:20;;;;;;;5.67;4.60;;;14.50;99.90;;;;;;5090705;28;20470;-63
2023/02/18 12:50:46;;;;;;;5.67;4.10;;;14.50;99.90;;;;;;5095036;28;20418;-63
2023/02/18 12:53:41;;;;;;;5.13;4.40;;;14.60;99.90;;;;;;5095637;28;20412;-63
2023/02/18 12:56:29;;;;;;;5.80;4.20;;;14.80;99.90;;;;;;5092755;28;20244;-62
2023/02/18 12:59:03;;;;;;;4.00;3.30;;;14.70;99.90;;;;;;5090706;27;20463;-63
2023/02/18 13:01:51;;;;;;;4.73;3.60;;;14.70;99.90;;;;;;5085866;28;20817;-63
2023/02/18 13:04:29;;;;;;;7.80;3.57;;;14.70;99.90;;;;;;5092577;27;20544;-63
2023/02/18 13:07:26;;;;;;;4.40;3.80;;;14.70;99.90;;;;;;5090882;27;20460;-63